sensor_id;sensor_type;location;lat;lon;timestamp;P1;durP1;ratioP1;P2;durP2;ratioP2
45944;SDS011;31655;48.972;10.686;2023-04-08T00:57:37;27.70;;;16.55;;
45944;SDS011;31655;48.972;10.686;2023-04-08T01:02:44;34.95;;;17.63;;
45944;SDS011;31655;48.972;10.686;2023-04-08T01:05:38;39.50;;;19.08;;
45944;SDS011;31655;48.972;10.686;2023-04-08T01:08:38;34.58;;;17.67;;
45944;SDS011;31655;48.972;10.686;2023-04-08T01:11:26;38.75;;;18.98;;
45944;SDS011;31655;48.972;10.686;2023-04-08T01:14:19;33.00;;;18.70;;
45944;SDS011;31655;48.972;10.686;2023-04-08T04:31:23;53.13;;;24.67;;
45944;SDS011;31655;48.972;10.686;2023-04-08T04:33:54;50.35;;;25.83;;
45944;SDS011;31655;48.972;10.686;2023-04-08T04:36:24;53.67;;;25.30;;
45944;SDS011;31655;48.972;10.686;2023-04-08T04:38:56;54.10;;;26.30;;
45944;SDS011;31655;48.972;10.686;2023-04-08T04:44:31;55.03;;;27.45;;
45944;SDS011;31655;48.972;10.686;2023-04-08T04:46:57;55.70;;;27.48;;
45944;SDS011;31655;48.972;10.686;2023-04-08T04:49:24;61.05;;;29.52;;
45944;SDS011;31655;48.972;10.686;2023-04-08T04:51:50;51.42;;;28.50;;
45944;SDS011;31655;48.972;10.686;2023-04-08T04:54:16;52.97;;;26.73;;
45944;SDS011;31655;48.972;10.686;2023-04-08T04:59:27;49.78;;;25.73;;
45944;SDS011;31655;48.972;10.686;2023-04-08T05:01:53;45.65;;;26.08;;
45944;SDS011;31655;48.972;10.686;2023-04-08T05:04:24;49.58;;;25.75;;
45944;SDS011;31655;48.972;10.686;2023-04-08T05:07:09;45.47;;;23.88;;
45944;SDS011;31655;48.972;10.686;2023-04-08T05:09:36;49.35;;;25.48;;
45944;SDS011;31655;48.972;10.686;2023-04-08T05:12:08;50.92;;;24.83;;
45944;SDS011;31655;48.972;10.686;2023-04-08T05:15:21;44.78;;;23.98;;
45944;SDS011;31655;48.972;10.686;2023-04-08T05:18:00;44.58;;;23.65;;
45944;SDS011;31655;48.972;10.686;2023-04-08T05:20:47;44.80;;;23.45;;
45944;SDS011;31655;48.972;10.686;2023-04-08T05:23:33;47.13;;;23.45;;
45944;SDS011;31655;48.972;10.686;2023-04-08T05:26:39;50.80;;;23.75;;
45944;SDS011;31655;48.972;10.686;2023-04-08T05:32:22;47.30;;;23.98;;
45944;SDS011;31655;48.972;10.686;2023-04-08T05:34:49;49.20;;;24.20;;
45944;SDS011;31655;48.972;10.686;2023-04-08T05:37:26;47.65;;;25.05;;
45944;SDS011;31655;48.972;10.686;2023-04-08T05:39:58;43.33;;;22.08;;
45944;SDS011;31655;48.972;10.686;2023-04-08T05:42:25;43.67;;;23.20;;
45944;SDS011;31655;48.972;10.686;2023-04-08T05:44:52;42.60;;;22.40;;
45944;SDS011;31655;48.972;10.686;2023-04-08T05:47:18;44.22;;;23.10;;
45944;SDS011;31655;48.972;10.686;2023-04-08T05:53:09;40.85;;;22.17;;
45944;SDS011;31655;48.972;10.686;2023-04-08T05:55:35;40.53;;;21.85;;
45944;SDS011;31655;48.972;10.686;2023-04-08T05:58:01;39.10;;;22.27;;
45944;SDS011;31655;48.972;10.686;2023-04-08T06:00:29;40.13;;;22.13;;
45944;SDS011;31655;48.972;10.686;2023-04-08T06:05:58;39.88;;;20.25;;
45944;SDS011;31655;48.972;10.686;2023-04-08T06:08:24;38.70;;;20.85;;
45944;SDS011;31655;48.972;10.686;2023-04-08T06:10:50;33.60;;;19.75;;
45944;SDS011;31655;48.972;10.686;2023-04-08T06:13:19;33.35;;;19.35;;
45944;SDS011;31655;48.972;10.686;2023-04-08T06:15:46;35.13;;;20.08;;
45944;SDS011;31655;48.972;10.686;2023-04-08T06:18:16;34.33;;;18.48;;
45944;SDS011;31655;48.972;10.686;2023-04-08T06:20:43;33.97;;;18.77;;
45944;SDS011;31655;48.972;10.686;2023-04-08T06:23:12;36.83;;;20.10;;
45944;SDS011;31655;48.972;10.686;2023-04-08T06:25:42;38.55;;;19.10;;
45944;SDS011;31655;48.972;10.686;2023-04-08T06:28:08;35.58;;;19.10;;
45944;SDS011;31655;48.972;10.686;2023-04-08T06:30:35;37.83;;;20.30;;
45944;SDS011;31655;48.972;10.686;2023-04-08T06:33:01;30.75;;;18.70;;
45944;SDS011;31655;48.972;10.686;2023-04-08T06:35:27;34.38;;;19.00;;
45944;SDS011;31655;48.972;10.686;2023-04-08T06:37:53;36.13;;;20.17;;
45944;SDS011;31655;48.972;10.686;2023-04-08T06:40:20;32.83;;;18.35;;
45944;SDS011;31655;48.972;10.686;2023-04-08T06:42:52;30.05;;;19.23;;
45944;SDS011;31655;48.972;10.686;2023-04-08T06:45:18;34.17;;;19.55;;
45944;SDS011;31655;48.972;10.686;2023-04-08T06:47:45;31.80;;;17.67;;
45944;SDS011;31655;48.972;10.686;2023-04-08T06:50:14;32.78;;;18.67;;
45944;SDS011;31655;48.972;10.686;2023-04-08T06:52:40;33.33;;;17.85;;
45944;SDS011;31655;48.972;10.686;2023-04-08T06:55:06;28.73;;;17.25;;
45944;SDS011;31655;48.972;10.686;2023-04-08T06:57:32;32.28;;;17.75;;
45944;SDS011;31655;48.972;10.686;2023-04-08T06:59:57;29.40;;;16.85;;
45944;SDS011;31655;48.972;10.686;2023-04-08T07:02:24;28.20;;;16.30;;
45944;SDS011;31655;48.972;10.686;2023-04-08T07:04:50;25.35;;;16.25;;
45944;SDS011;31655;48.972;10.686;2023-04-08T07:07:16;26.52;;;16.88;;
45944;SDS011;31655;48.972;10.686;2023-04-08T07:09:42;27.40;;;16.60;;
45944;SDS011;31655;48.972;10.686;2023-04-08T07:12:10;26.33;;;15.32;;
45944;SDS011;31655;48.972;10.686;2023-04-08T07:14:36;26.88;;;16.30;;
45944;SDS011;31655;48.972;10.686;2023-04-08T07:17:01;28.38;;;16.27;;
45944;SDS011;31655;48.972;10.686;2023-04-08T07:19:27;24.60;;;15.95;;
45944;SDS011;31655;48.972;10.686;2023-04-08T07:21:53;25.08;;;15.50;;
45944;SDS011;31655;48.972;10.686;2023-04-08T07:24:18;25.38;;;15.88;;
45944;SDS011;31655;48.972;10.686;2023-04-08T07:26:44;24.55;;;14.50;;
45944;SDS011;31655;48.972;10.686;2023-04-08T07:29:10;26.63;;;15.77;;
45944;SDS011;31655;48.972;10.686;2023-04-08T07:31:36;25.95;;;15.63;;
45944;SDS011;31655;48.972;10.686;2023-04-08T07:34:01;26.55;;;14.18;;
45944;SDS011;31655;48.972;10.686;2023-04-08T07:36:27;23.40;;;14.10;;
45944;SDS011;31655;48.972;10.686;2023-04-08T07:38:53;24.75;;;14.07;;
45944;SDS011;31655;48.972;10.686;2023-04-08T07:41:24;22.83;;;12.50;;
45944;SDS011;31655;48.972;10.686;2023-04-08T07:44:11;22.48;;;13.82;;
45944;SDS011;31655;48.972;10.686;2023-04-08T07:46:52;23.05;;;14.35;;
45944;SDS011;31655;48.972;10.686;2023-04-08T07:49:25;21.77;;;13.02;;
45944;SDS011;31655;48.972;10.686;2023-04-08T07:51:54;22.23;;;12.60;;
45944;SDS011;31655;48.972;10.686;2023-04-08T07:54:19;24.02;;;12.30;;
45944;SDS011;31655;48.972;10.686;2023-04-08T08:28:21;23.60;;;13.70;;
45944;SDS011;31655;48.972;10.686;2023-04-08T08:30:56;20.73;;;12.48;;
45944;SDS011;31655;48.972;10.686;2023-04-08T08:58:15;17.58;;;10.60;;
45944;SDS011;31655;48.972;10.686;2023-04-08T09:12:12;36.55;;;15.50;;
45944;SDS011;31655;48.972;10.686;2023-04-08T09:14:43;23.92;;;13.18;;
45944;SDS011;31655;48.972;10.686;2023-04-08T09:38:10;26.80;;;13.65;;
45944;SDS011;31655;48.972;10.686;2023-04-08T09:40:42;19.85;;;11.20;;
45944;SDS011;31655;48.972;10.686;2023-04-08T09:43:10;24.45;;;12.60;;
45944;SDS011;31655;48.972;10.686;2023-04-08T09:45:49;17.60;;;11.63;;
45944;SDS011;31655;48.972;10.686;2023-04-08T09:48:21;17.35;;;11.02;;
45944;SDS011;31655;48.972;10.686;2023-04-08T09:50:51;21.52;;;12.95;;
45944;SDS011;31655;48.972;10.686;2023-04-08T09:53:33;20.40;;;12.27;;
45944;SDS011;31655;48.972;10.686;2023-04-08T09:56:06;23.45;;;15.07;;
45944;SDS011;31655;48.972;10.686;2023-04-08T09:58:48;18.58;;;10.93;;
45944;SDS011;31655;48.972;10.686;2023-04-08T10:01:32;20.60;;;12.15;;
45944;SDS011;31655;48.972;10.686;2023-04-08T10:04:04;15.85;;;10.07;;
45944;SDS011;31655;48.972;10.686;2023-04-08T10:06:57;14.65;;;9.48;;
45944;SDS011;31655;48.972;10.686;2023-04-08T10:09:27;15.18;;;10.50;;
45944;SDS011;31655;48.972;10.686;2023-04-08T10:12:02;15.88;;;10.07;;
45944;SDS011;31655;48.972;10.686;2023-04-08T10:17:24;15.00;;;10.00;;
45944;SDS011;31655;48.972;10.686;2023-04-08T14:45:21;14.82;;;10.02;;
45944;SDS011;31655;48.972;10.686;2023-04-08T14:47:47;14.85;;;10.18;;
45944;SDS011;31655;48.972;10.686;2023-04-08T14:50:12;15.38;;;9.27;;
45944;SDS011;31655;48.972;10.686;2023-04-08T14:52:38;14.50;;;9.95;;
45944;SDS011;31655;48.972;10.686;2023-04-08T14:55:04;11.80;;;8.50;;
45944;SDS011;31655;48.972;10.686;2023-04-08T14:57:30;13.23;;;9.23;;
45944;SDS011;31655;48.972;10.686;2023-04-08T15:00:01;14.48;;;10.02;;
45944;SDS011;31655;48.972;10.686;2023-04-08T15:02:42;22.42;;;13.23;;
45944;SDS011;31655;48.972;10.686;2023-04-08T15:05:08;22.33;;;12.68;;
45944;SDS011;31655;48.972;10.686;2023-04-08T15:07:34;12.65;;;9.63;;
45944;SDS011;31655;48.972;10.686;2023-04-08T15:10:18;12.40;;;8.00;;
45944;SDS011;31655;48.972;10.686;2023-04-08T15:12:47;12.90;;;8.50;;
45944;SDS011;31655;48.972;10.686;2023-04-08T15:15:12;15.30;;;10.13;;
45944;SDS011;31655;48.972;10.686;2023-04-08T15:17:38;14.23;;;9.43;;
45944;SDS011;31655;48.972;10.686;2023-04-08T15:20:06;13.63;;;9.60;;
45944;SDS011;31655;48.972;10.686;2023-04-08T15:22:32;13.40;;;9.20;;
45944;SDS011;31655;48.972;10.686;2023-04-08T15:24:58;13.75;;;9.35;;
45944;SDS011;31655;48.972;10.686;2023-04-08T15:27:24;14.18;;;9.68;;
45944;SDS011;31655;48.972;10.686;2023-04-08T15:36:18;16.95;;;10.98;;
45944;SDS011;31655;48.972;10.686;2023-04-08T15:38:47;13.75;;;9.30;;
45944;SDS011;31655;48.972;10.686;2023-04-08T15:42:10;15.25;;;9.30;;
45944;SDS011;31655;48.972;10.686;2023-04-08T15:44:36;16.83;;;10.40;;
45944;SDS011;31655;48.972;10.686;2023-04-08T15:47:01;13.07;;;9.50;;
45944;SDS011;31655;48.972;10.686;2023-04-08T15:49:28;16.40;;;10.90;;
45944;SDS011;31655;48.972;10.686;2023-04-08T15:51:54;16.08;;;10.07;;
45944;SDS011;31655;48.972;10.686;2023-04-08T15:54:23;15.75;;;10.27;;
45944;SDS011;31655;48.972;10.686;2023-04-08T15:56:54;15.13;;;10.13;;
45944;SDS011;31655;48.972;10.686;2023-04-08T15:59:20;15.70;;;10.18;;
45944;SDS011;31655;48.972;10.686;2023-04-08T16:01:46;16.55;;;9.93;;
45944;SDS011;31655;48.972;10.686;2023-04-08T16:04:13;15.90;;;10.77;;
45944;SDS011;31655;48.972;10.686;2023-04-08T16:06:40;15.52;;;10.75;;
45944;SDS011;31655;48.972;10.686;2023-04-08T16:09:05;14.07;;;9.40;;
45944;SDS011;31655;48.972;10.686;2023-04-08T16:11:32;14.38;;;8.95;;
45944;SDS011;31655;48.972;10.686;2023-04-08T16:13:58;15.70;;;9.70;;
45944;SDS011;31655;48.972;10.686;2023-04-08T16:16:23;25.27;;;11.30;;
45944;SDS011;31655;48.972;10.686;2023-04-08T16:18:49;18.25;;;10.45;;
45944;SDS011;31655;48.972;10.686;2023-04-08T16:21:16;15.95;;;9.82;;
45944;SDS011;31655;48.972;10.686;2023-04-08T16:23:42;17.15;;;9.77;;
45944;SDS011;31655;48.972;10.686;2023-04-08T16:26:08;15.57;;;10.00;;
45944;SDS011;31655;48.972;10.686;2023-04-08T16:28:34;13.32;;;9.48;;
45944;SDS011;31655;48.972;10.686;2023-04-08T16:31:00;13.48;;;9.77;;
45944;SDS011;31655;48.972;10.686;2023-04-08T16:33:27;14.52;;;9.65;;
45944;SDS011;31655;48.972;10.686;2023-04-08T16:35:56;14.10;;;10.77;;
45944;SDS011;31655;48.972;10.686;2023-04-08T16:38:22;16.70;;;10.05;;
45944;SDS011;31655;48.972;10.686;2023-04-08T16:40:48;13.88;;;9.38;;
45944;SDS011;31655;48.972;10.686;2023-04-08T16:43:14;15.43;;;10.52;;
45944;SDS011;31655;48.972;10.686;2023-04-08T16:45:40;12.10;;;8.77;;
45944;SDS011;31655;48.972;10.686;2023-04-08T16:48:06;13.68;;;8.95;;
45944;SDS011;31655;48.972;10.686;2023-04-08T16:50:32;14.23;;;9.30;;
45944;SDS011;31655;48.972;10.686;2023-04-08T16:52:58;14.85;;;10.13;;
45944;SDS011;31655;48.972;10.686;2023-04-08T16:55:24;14.05;;;9.68;;
45944;SDS011;31655;48.972;10.686;2023-04-08T16:57:49;12.27;;;9.02;;
45944;SDS011;31655;48.972;10.686;2023-04-08T17:00:16;14.43;;;9.85;;
45944;SDS011;31655;48.972;10.686;2023-04-08T17:02:41;12.90;;;9.93;;
45944;SDS011;31655;48.972;10.686;2023-04-08T17:05:07;15.20;;;9.82;;
45944;SDS011;31655;48.972;10.686;2023-04-08T17:07:33;14.50;;;9.10;;
45944;SDS011;31655;48.972;10.686;2023-04-08T17:09:59;15.52;;;9.77;;
45944;SDS011;31655;48.972;10.686;2023-04-08T17:12:25;15.55;;;9.95;;
45944;SDS011;31655;48.972;10.686;2023-04-08T17:14:52;11.85;;;9.50;;
45944;SDS011;31655;48.972;10.686;2023-04-08T17:17:18;15.15;;;9.82;;
45944;SDS011;31655;48.972;10.686;2023-04-08T17:19:44;18.80;;;10.68;;
45944;SDS011;31655;48.972;10.686;2023-04-08T17:22:11;15.18;;;10.52;;
45944;SDS011;31655;48.972;10.686;2023-04-08T17:24:36;18.08;;;11.32;;
45944;SDS011;31655;48.972;10.686;2023-04-08T17:27:02;18.73;;;11.75;;
45944;SDS011;31655;48.972;10.686;2023-04-08T17:29:27;21.38;;;11.80;;
45944;SDS011;31655;48.972;10.686;2023-04-08T17:31:56;26.23;;;14.55;;
45944;SDS011;31655;48.972;10.686;2023-04-08T17:34:21;27.58;;;15.20;;
45944;SDS011;31655;48.972;10.686;2023-04-08T17:36:48;20.40;;;13.40;;
45944;SDS011;31655;48.972;10.686;2023-04-08T17:39:14;19.60;;;13.02;;
45944;SDS011;31655;48.972;10.686;2023-04-08T17:41:40;15.30;;;10.43;;
45944;SDS011;31655;48.972;10.686;2023-04-08T17:44:05;18.27;;;11.60;;
45944;SDS011;31655;48.972;10.686;2023-04-08T17:46:31;17.90;;;11.50;;
45944;SDS011;31655;48.972;10.686;2023-04-08T17:48:57;18.67;;;11.05;;
45944;SDS011;31655;48.972;10.686;2023-04-08T17:51:23;15.65;;;10.80;;
45944;SDS011;31655;48.972;10.686;2023-04-08T17:53:50;16.98;;;11.07;;
45944;SDS011;31655;48.972;10.686;2023-04-08T17:56:15;16.25;;;11.25;;
45944;SDS011;31655;48.972;10.686;2023-04-08T17:58:41;17.33;;;10.95;;
45944;SDS011;31655;48.972;10.686;2023-04-08T18:01:07;16.95;;;10.55;;
45944;SDS011;31655;48.972;10.686;2023-04-08T18:03:33;15.90;;;10.98;;
45944;SDS011;31655;48.972;10.686;2023-04-08T18:05:59;17.15;;;11.00;;
45944;SDS011;31655;48.972;10.686;2023-04-08T18:08:25;16.58;;;10.63;;
45944;SDS011;31655;48.972;10.686;2023-04-08T18:10:50;15.10;;;9.82;;
45944;SDS011;31655;48.972;10.686;2023-04-08T18:13:22;15.65;;;10.02;;
45944;SDS011;31655;48.972;10.686;2023-04-08T18:15:47;16.95;;;10.75;;
45944;SDS011;31655;48.972;10.686;2023-04-08T18:21:37;16.55;;;10.65;;
45944;SDS011;31655;48.972;10.686;2023-04-08T18:24:02;16.73;;;11.60;;
45944;SDS011;31655;48.972;10.686;2023-04-08T18:26:29;15.25;;;11.13;;
45944;SDS011;31655;48.972;10.686;2023-04-08T18:29:07;16.08;;;9.95;;
45944;SDS011;31655;48.972;10.686;2023-04-08T18:31:38;16.27;;;10.05;;
45944;SDS011;31655;48.972;10.686;2023-04-08T18:34:06;15.93;;;10.55;;
45944;SDS011;31655;48.972;10.686;2023-04-08T18:36:48;16.27;;;10.73;;
45944;SDS011;31655;48.972;10.686;2023-04-08T18:39:33;16.25;;;9.85;;
45944;SDS011;31655;48.972;10.686;2023-04-08T18:41:59;17.10;;;11.43;;
45944;SDS011;31655;48.972;10.686;2023-04-08T18:44:31;16.17;;;11.90;;
45944;SDS011;31655;48.972;10.686;2023-04-08T18:47:03;16.52;;;11.32;;
45944;SDS011;31655;48.972;10.686;2023-04-08T18:49:28;24.63;;;12.43;;
45944;SDS011;31655;48.972;10.686;2023-04-08T18:51:57;15.98;;;10.70;;
45944;SDS011;31655;48.972;10.686;2023-04-08T18:56:57;18.33;;;10.95;;
45944;SDS011;31655;48.972;10.686;2023-04-08T18:59:23;17.23;;;10.85;;
45944;SDS011;31655;48.972;10.686;2023-04-08T19:01:52;19.38;;;11.70;;
45944;SDS011;31655;48.972;10.686;2023-04-08T19:04:21;18.80;;;11.57;;
45944;SDS011;31655;48.972;10.686;2023-04-08T19:06:48;16.13;;;11.07;;
45944;SDS011;31655;48.972;10.686;2023-04-08T19:09:18;17.10;;;11.82;;
45944;SDS011;31655;48.972;10.686;2023-04-08T19:11:43;18.75;;;11.77;;
45944;SDS011;31655;48.972;10.686;2023-04-08T19:14:15;16.10;;;11.57;;
45944;SDS011;31655;48.972;10.686;2023-04-08T19:16:42;22.58;;;12.00;;
45944;SDS011;31655;48.972;10.686;2023-04-08T19:22:37;19.85;;;11.52;;
45944;SDS011;31655;48.972;10.686;2023-04-08T19:25:04;20.13;;;11.68;;
45944;SDS011;31655;48.972;10.686;2023-04-08T19:27:30;18.90;;;11.90;;
45944;SDS011;31655;48.972;10.686;2023-04-08T19:29:59;16.98;;;11.65;;
45944;SDS011;31655;48.972;10.686;2023-04-08T19:32:25;17.05;;;11.27;;
45944;SDS011;31655;48.972;10.686;2023-04-08T19:34:54;18.80;;;12.20;;
45944;SDS011;31655;48.972;10.686;2023-04-08T19:37:20;18.38;;;12.05;;
45944;SDS011;31655;48.972;10.686;2023-04-08T19:39:46;22.73;;;12.27;;
45944;SDS011;31655;48.972;10.686;2023-04-08T19:42:11;17.25;;;11.60;;
45944;SDS011;31655;48.972;10.686;2023-04-08T19:44:41;18.33;;;11.77;;
45944;SDS011;31655;48.972;10.686;2023-04-08T19:47:12;17.60;;;12.18;;
45944;SDS011;31655;48.972;10.686;2023-04-08T19:49:41;19.52;;;11.45;;
45944;SDS011;31655;48.972;10.686;2023-04-08T19:52:06;20.40;;;14.20;;
45944;SDS011;31655;48.972;10.686;2023-04-08T19:54:32;19.80;;;12.70;;
45944;SDS011;31655;48.972;10.686;2023-04-08T19:56:58;17.65;;;12.45;;
45944;SDS011;31655;48.972;10.686;2023-04-08T19:59:24;20.15;;;13.75;;
45944;SDS011;31655;48.972;10.686;2023-04-08T20:01:50;20.95;;;14.07;;
45944;SDS011;31655;48.972;10.686;2023-04-08T20:04:16;24.73;;;15.43;;
45944;SDS011;31655;48.972;10.686;2023-04-08T20:06:41;22.05;;;14.65;;
45944;SDS011;31655;48.972;10.686;2023-04-08T20:09:09;19.33;;;13.80;;
45944;SDS011;31655;48.972;10.686;2023-04-08T20:11:37;22.27;;;13.77;;
45944;SDS011;31655;48.972;10.686;2023-04-08T20:14:11;18.95;;;13.18;;
45944;SDS011;31655;48.972;10.686;2023-04-08T20:16:46;21.02;;;13.95;;
45944;SDS011;31655;48.972;10.686;2023-04-08T20:19:22;19.88;;;13.18;;
45944;SDS011;31655;48.972;10.686;2023-04-08T20:21:50;21.60;;;13.63;;
45944;SDS011;31655;48.972;10.686;2023-04-08T20:24:16;20.65;;;13.52;;
45944;SDS011;31655;48.972;10.686;2023-04-08T20:26:43;24.83;;;14.88;;
45944;SDS011;31655;48.972;10.686;2023-04-08T20:29:15;21.45;;;13.00;;
45944;SDS011;31655;48.972;10.686;2023-04-08T20:32:10;21.75;;;12.77;;
45944;SDS011;31655;48.972;10.686;2023-04-08T20:37:49;22.77;;;12.98;;
45944;SDS011;31655;48.972;10.686;2023-04-08T20:40:23;19.13;;;12.07;;
45944;SDS011;31655;48.972;10.686;2023-04-08T20:42:52;18.70;;;11.85;;
45944;SDS011;31655;48.972;10.686;2023-04-08T20:45:18;18.02;;;11.23;;
45944;SDS011;31655;48.972;10.686;2023-04-08T20:47:44;19.30;;;12.40;;
45944;SDS011;31655;48.972;10.686;2023-04-08T20:50:11;16.60;;;10.77;;
45944;SDS011;31655;48.972;10.686;2023-04-08T20:52:37;20.63;;;11.95;;
45944;SDS011;31655;48.972;10.686;2023-04-08T20:55:05;21.60;;;11.85;;
45944;SDS011;31655;48.972;10.686;2023-04-08T20:57:39;14.73;;;9.88;;
45944;SDS011;31655;48.972;10.686;2023-04-08T21:00:07;16.85;;;10.80;;
45944;SDS011;31655;48.972;10.686;2023-04-08T21:06:35;17.08;;;11.75;;
45944;SDS011;31655;48.972;10.686;2023-04-08T21:09:07;17.45;;;11.23;;
45944;SDS011;31655;48.972;10.686;2023-04-08T21:14:30;15.90;;;10.00;;
45944;SDS011;31655;48.972;10.686;2023-04-08T21:33:09;23.25;;;11.65;;
45944;SDS011;31655;48.972;10.686;2023-04-08T21:35:39;16.67;;;10.80;;
45944;SDS011;31655;48.972;10.686;2023-04-08T21:38:08;19.73;;;12.02;;
45944;SDS011;31655;48.972;10.686;2023-04-08T21:40:34;16.95;;;10.63;;
45944;SDS011;31655;48.972;10.686;2023-04-08T21:43:00;23.15;;;12.38;;
45944;SDS011;31655;48.972;10.686;2023-04-08T21:45:26;18.17;;;10.70;;
45944;SDS011;31655;48.972;10.686;2023-04-08T21:47:57;21.55;;;11.13;;
45944;SDS011;31655;48.972;10.686;2023-04-08T21:50:38;19.83;;;11.35;;
45944;SDS011;31655;48.972;10.686;2023-04-08T21:53:11;17.00;;;10.00;;
45944;SDS011;31655;48.972;10.686;2023-04-08T21:55:41;19.33;;;11.02;;
45944;SDS011;31655;48.972;10.686;2023-04-08T21:58:07;16.40;;;10.90;;
45944;SDS011;31655;48.972;10.686;2023-04-08T22:00:36;19.30;;;11.55;;
45944;SDS011;31655;48.972;10.686;2023-04-08T22:03:03;18.85;;;11.23;;
45944;SDS011;31655;48.972;10.686;2023-04-08T22:05:30;17.50;;;10.55;;
45944;SDS011;31655;48.972;10.686;2023-04-08T22:07:56;15.13;;;10.20;;
45944;SDS011;31655;48.972;10.686;2023-04-08T22:10:22;16.63;;;10.70;;
45944;SDS011;31655;48.972;10.686;2023-04-08T22:12:50;15.70;;;10.73;;
45944;SDS011;31655;48.972;10.686;2023-04-08T22:15:18;21.02;;;12.35;;
45944;SDS011;31655;48.972;10.686;2023-04-08T22:17:45;18.38;;;11.40;;
45944;SDS011;31655;48.972;10.686;2023-04-08T22:20:11;18.60;;;11.05;;
45944;SDS011;31655;48.972;10.686;2023-04-08T22:22:37;15.27;;;9.85;;
45944;SDS011;31655;48.972;10.686;2023-04-08T22:25:03;21.48;;;12.05;;
45944;SDS011;31655;48.972;10.686;2023-04-08T22:27:30;22.35;;;10.98;;
45944;SDS011;31655;48.972;10.686;2023-04-08T22:29:56;17.42;;;10.60;;
45944;SDS011;31655;48.972;10.686;2023-04-08T22:32:21;16.70;;;11.10;;
45944;SDS011;31655;48.972;10.686;2023-04-08T22:34:47;21.17;;;12.15;;
45944;SDS011;31655;48.972;10.686;2023-04-08T22:37:13;20.15;;;11.15;;
45944;SDS011;31655;48.972;10.686;2023-04-08T22:39:39;20.92;;;11.20;;
45944;SDS011;31655;48.972;10.686;2023-04-08T22:42:05;19.08;;;12.18;;
45944;SDS011;31655;48.972;10.686;2023-04-08T22:44:31;21.95;;;12.30;;
45944;SDS011;31655;48.972;10.686;2023-04-08T22:46:57;23.48;;;13.52;;
45944;SDS011;31655;48.972;10.686;2023-04-08T22:49:23;19.80;;;11.50;;
45944;SDS011;31655;48.972;10.686;2023-04-08T22:51:49;25.10;;;12.68;;
45944;SDS011;31655;48.972;10.686;2023-04-08T22:54:15;19.13;;;12.60;;
45944;SDS011;31655;48.972;10.686;2023-04-08T22:56:42;21.92;;;12.63;;
45944;SDS011;31655;48.972;10.686;2023-04-08T23:02:32;16.13;;;11.05;;
45944;SDS011;31655;48.972;10.686;2023-04-08T23:04:58;18.58;;;11.52;;
45944;SDS011;31655;48.972;10.686;2023-04-08T23:07:24;20.60;;;12.25;;
45944;SDS011;31655;48.972;10.686;2023-04-08T23:09:50;19.88;;;12.02;;
45944;SDS011;31655;48.972;10.686;2023-04-08T23:12:16;17.42;;;11.50;;
45944;SDS011;31655;48.972;10.686;2023-04-08T23:14:42;19.35;;;12.18;;
45944;SDS011;31655;48.972;10.686;2023-04-08T23:17:08;19.15;;;12.20;;
45944;SDS011;31655;48.972;10.686;2023-04-08T23:19:34;18.55;;;10.98;;
45944;SDS011;31655;48.972;10.686;2023-04-08T23:22:00;18.58;;;11.32;;
45944;SDS011;31655;48.972;10.686;2023-04-08T23:24:26;19.23;;;11.70;;
45944;SDS011;31655;48.972;10.686;2023-04-08T23:26:52;18.98;;;11.75;;
45944;SDS011;31655;48.972;10.686;2023-04-08T23:29:18;18.50;;;11.52;;
45944;SDS011;31655;48.972;10.686;2023-04-08T23:31:44;19.10;;;10.60;;
45944;SDS011;31655;48.972;10.686;2023-04-08T23:34:09;22.55;;;13.32;;
45944;SDS011;31655;48.972;10.686;2023-04-08T23:36:35;18.08;;;11.07;;
45944;SDS011;31655;48.972;10.686;2023-04-08T23:39:01;20.33;;;12.18;;
45944;SDS011;31655;48.972;10.686;2023-04-08T23:41:30;20.65;;;11.70;;
45944;SDS011;31655;48.972;10.686;2023-04-08T23:44:01;18.67;;;11.70;;
45944;SDS011;31655;48.972;10.686;2023-04-08T23:49:50;20.90;;;12.10;;
45944;SDS011;31655;48.972;10.686;2023-04-08T23:52:20;18.13;;;12.40;;
45944;SDS011;31655;48.972;10.686;2023-04-08T23:54:49;21.50;;;13.25;;
45944;SDS011;31655;48.972;10.686;2023-04-08T23:57:16;21.27;;;13.30;;
45944;SDS011;31655;48.972;10.686;2023-04-08T23:59:44;22.75;;;12.60;;
